sensor_id;sensor_type;location;lat;lon;timestamp;P1;durP1;ratioP1;P2;durP2;ratioP2
7410;SDS011;3747;48.628;9.058;2022-09-20T00:01:10;4.23;;;2.23;;
7410;SDS011;3747;48.628;9.058;2022-09-20T00:03:39;8.27;;;2.27;;
7410;SDS011;3747;48.628;9.058;2022-09-20T00:06:09;6.53;;;2.77;;
7410;SDS011;3747;48.628;9.058;2022-09-20T00:08:37;6.17;;;3.17;;
7410;SDS011;3747;48.628;9.058;2022-09-20T00:11:06;8.77;;;3.50;;
7410;SDS011;3747;48.628;9.058;2022-09-20T00:13:34;6.33;;;3.33;;
7410;SDS011;3747;48.628;9.058;2022-09-20T00:16:03;4.60;;;2.47;;
7410;SDS011;3747;48.628;9.058;2022-09-20T00:18:31;5.17;;;2.73;;
7410;SDS011;3747;48.628;9.058;2022-09-20T00:20:57;2.50;;;2.13;;
7410;SDS011;3747;48.628;9.058;2022-09-20T00:23:25;7.80;;;2.30;;
7410;SDS011;3747;48.628;9.058;2022-09-20T00:25:54;11.83;;;2.70;;
7410;SDS011;3747;48.628;9.058;2022-09-20T00:28:21;3.60;;;2.23;;
7410;SDS011;3747;48.628;9.058;2022-09-20T00:30:48;5.40;;;2.03;;
7410;SDS011;3747;48.628;9.058;2022-09-20T00:33:15;4.23;;;1.83;;
7410;SDS011;3747;48.628;9.058;2022-09-20T00:35:42;4.30;;;2.00;;
7410;SDS011;3747;48.628;9.058;2022-09-20T00:38:08;4.80;;;2.43;;
7410;SDS011;3747;48.628;9.058;2022-09-20T00:40:37;2.67;;;1.70;;
7410;SDS011;3747;48.628;9.058;2022-09-20T00:43:04;2.87;;;1.63;;
7410;SDS011;3747;48.628;9.058;2022-09-20T00:45:31;5.13;;;1.90;;
7410;SDS011;3747;48.628;9.058;2022-09-20T00:47:59;6.87;;;1.73;;
7410;SDS011;3747;48.628;9.058;2022-09-20T00:50:31;6.73;;;2.13;;
7410;SDS011;3747;48.628;9.058;2022-09-20T00:53:03;2.90;;;2.07;;
7410;SDS011;3747;48.628;9.058;2022-09-20T00:55:33;2.77;;;2.10;;
7410;SDS011;3747;48.628;9.058;2022-09-20T00:58:05;4.97;;;1.80;;
7410;SDS011;3747;48.628;9.058;2022-09-20T01:00:33;3.97;;;2.00;;
7410;SDS011;3747;48.628;9.058;2022-09-20T01:03:01;8.27;;;2.60;;
7410;SDS011;3747;48.628;9.058;2022-09-20T01:05:31;2.50;;;2.30;;
7410;SDS011;3747;48.628;9.058;2022-09-20T01:07:58;31.57;;;15.93;;
7410;SDS011;3747;48.628;9.058;2022-09-20T01:10:26;8.80;;;4.40;;
7410;SDS011;3747;48.628;9.058;2022-09-20T01:12:54;5.50;;;2.57;;
7410;SDS011;3747;48.628;9.058;2022-09-20T01:15:21;5.77;;;2.07;;
7410;SDS011;3747;48.628;9.058;2022-09-20T01:17:52;3.23;;;1.80;;
7410;SDS011;3747;48.628;9.058;2022-09-20T01:20:21;3.83;;;1.83;;
7410;SDS011;3747;48.628;9.058;2022-09-20T01:22:58;6.43;;;1.90;;
7410;SDS011;3747;48.628;9.058;2022-09-20T01:25:54;3.10;;;2.07;;
7410;SDS011;3747;48.628;9.058;2022-09-20T01:28:44;4.70;;;2.30;;
7410;SDS011;3747;48.628;9.058;2022-09-20T01:31:14;4.73;;;2.10;;
7410;SDS011;3747;48.628;9.058;2022-09-20T01:33:43;3.73;;;2.30;;
7410;SDS011;3747;48.628;9.058;2022-09-20T01:36:15;2.43;;;2.20;;
7410;SDS011;3747;48.628;9.058;2022-09-20T01:38:49;7.37;;;3.53;;
7410;SDS011;3747;48.628;9.058;2022-09-20T01:41:25;4.37;;;2.20;;
7410;SDS011;3747;48.628;9.058;2022-09-20T01:44:00;5.80;;;2.30;;
7410;SDS011;3747;48.628;9.058;2022-09-20T01:46:35;3.63;;;2.60;;
7410;SDS011;3747;48.628;9.058;2022-09-20T01:49:05;4.67;;;1.97;;
7410;SDS011;3747;48.628;9.058;2022-09-20T01:52:00;6.63;;;2.00;;
7410;SDS011;3747;48.628;9.058;2022-09-20T01:58:00;3.80;;;2.03;;
7410;SDS011;3747;48.628;9.058;2022-09-20T02:01:08;3.87;;;2.13;;
7410;SDS011;3747;48.628;9.058;2022-09-20T02:04:01;2.00;;;1.53;;
7410;SDS011;3747;48.628;9.058;2022-09-20T02:06:45;4.67;;;2.43;;
7410;SDS011;3747;48.628;9.058;2022-09-20T02:12:40;3.37;;;2.00;;
7410;SDS011;3747;48.628;9.058;2022-09-20T02:15:20;2.27;;;1.57;;
7410;SDS011;3747;48.628;9.058;2022-09-20T02:18:02;3.43;;;1.70;;
7410;SDS011;3747;48.628;9.058;2022-09-20T02:20:44;3.53;;;1.90;;
7410;SDS011;3747;48.628;9.058;2022-09-20T02:23:21;6.17;;;2.23;;
7410;SDS011;3747;48.628;9.058;2022-09-20T02:26:04;3.47;;;2.07;;
7410;SDS011;3747;48.628;9.058;2022-09-20T02:28:43;3.87;;;2.03;;
7410;SDS011;3747;48.628;9.058;2022-09-20T02:31:21;4.20;;;2.03;;
7410;SDS011;3747;48.628;9.058;2022-09-20T02:34:14;6.43;;;2.07;;
7410;SDS011;3747;48.628;9.058;2022-09-20T02:37:08;6.23;;;2.00;;
7410;SDS011;3747;48.628;9.058;2022-09-20T02:39:47;6.90;;;1.80;;
7410;SDS011;3747;48.628;9.058;2022-09-20T02:42:24;4.17;;;2.00;;
7410;SDS011;3747;48.628;9.058;2022-09-20T02:45:01;6.30;;;3.20;;
7410;SDS011;3747;48.628;9.058;2022-09-20T02:47:34;5.13;;;2.43;;
7410;SDS011;3747;48.628;9.058;2022-09-20T02:50:17;4.57;;;2.00;;
7410;SDS011;3747;48.628;9.058;2022-09-20T02:52:53;6.80;;;2.10;;
7410;SDS011;3747;48.628;9.058;2022-09-20T02:55:31;4.97;;;2.07;;
7410;SDS011;3747;48.628;9.058;2022-09-20T02:58:08;5.73;;;2.77;;
7410;SDS011;3747;48.628;9.058;2022-09-20T03:00:53;4.80;;;2.17;;
7410;SDS011;3747;48.628;9.058;2022-09-20T03:03:30;6.07;;;2.37;;
7410;SDS011;3747;48.628;9.058;2022-09-20T03:06:07;5.73;;;2.23;;
7410;SDS011;3747;48.628;9.058;2022-09-20T03:08:44;5.63;;;2.67;;
7410;SDS011;3747;48.628;9.058;2022-09-20T03:11:18;8.10;;;2.67;;
7410;SDS011;3747;48.628;9.058;2022-09-20T03:13:57;5.67;;;2.27;;
7410;SDS011;3747;48.628;9.058;2022-09-20T03:16:33;7.33;;;2.60;;
7410;SDS011;3747;48.628;9.058;2022-09-20T03:19:09;7.20;;;2.57;;
7410;SDS011;3747;48.628;9.058;2022-09-20T03:21:49;5.67;;;3.60;;
7410;SDS011;3747;48.628;9.058;2022-09-20T03:24:27;4.27;;;3.00;;
7410;SDS011;3747;48.628;9.058;2022-09-20T03:27:06;3.50;;;3.00;;
7410;SDS011;3747;48.628;9.058;2022-09-20T03:29:43;4.97;;;2.83;;
7410;SDS011;3747;48.628;9.058;2022-09-20T03:32:23;4.70;;;2.60;;
7410;SDS011;3747;48.628;9.058;2022-09-20T03:35:00;4.27;;;2.90;;
7410;SDS011;3747;48.628;9.058;2022-09-20T03:37:45;3.60;;;2.50;;
7410;SDS011;3747;48.628;9.058;2022-09-20T03:43:34;6.07;;;2.60;;
7410;SDS011;3747;48.628;9.058;2022-09-20T03:46:15;4.93;;;2.43;;
7410;SDS011;3747;48.628;9.058;2022-09-20T03:48:58;5.77;;;2.40;;
7410;SDS011;3747;48.628;9.058;2022-09-20T03:51:46;2.77;;;2.10;;
7410;SDS011;3747;48.628;9.058;2022-09-20T03:54:32;5.67;;;2.53;;
7410;SDS011;3747;48.628;9.058;2022-09-20T03:57:14;3.57;;;2.50;;
7410;SDS011;3747;48.628;9.058;2022-09-20T04:00:06;4.10;;;2.10;;
7410;SDS011;3747;48.628;9.058;2022-09-20T04:03:01;7.87;;;2.43;;
7410;SDS011;3747;48.628;9.058;2022-09-20T04:05:44;5.57;;;2.17;;
7410;SDS011;3747;48.628;9.058;2022-09-20T04:08:24;3.30;;;2.00;;
7410;SDS011;3747;48.628;9.058;2022-09-20T04:11:07;3.60;;;2.23;;
7410;SDS011;3747;48.628;9.058;2022-09-20T04:13:41;4.07;;;2.27;;
7410;SDS011;3747;48.628;9.058;2022-09-20T04:16:25;5.17;;;2.37;;
7410;SDS011;3747;48.628;9.058;2022-09-20T04:18:57;3.23;;;2.10;;
7410;SDS011;3747;48.628;9.058;2022-09-20T04:21:30;4.80;;;2.10;;
7410;SDS011;3747;48.628;9.058;2022-09-20T04:24:04;4.97;;;1.70;;
7410;SDS011;3747;48.628;9.058;2022-09-20T04:26:39;5.47;;;2.00;;
7410;SDS011;3747;48.628;9.058;2022-09-20T04:29:14;4.97;;;2.73;;
7410;SDS011;3747;48.628;9.058;2022-09-20T04:31:54;5.07;;;2.10;;
7410;SDS011;3747;48.628;9.058;2022-09-20T04:34:29;3.50;;;1.93;;
7410;SDS011;3747;48.628;9.058;2022-09-20T04:37:18;5.83;;;2.33;;
7410;SDS011;3747;48.628;9.058;2022-09-20T04:39:54;7.00;;;2.60;;
7410;SDS011;3747;48.628;9.058;2022-09-20T04:42:33;5.20;;;2.40;;
7410;SDS011;3747;48.628;9.058;2022-09-20T04:45:28;4.43;;;1.97;;
7410;SDS011;3747;48.628;9.058;2022-09-20T04:48:12;3.87;;;2.00;;
7410;SDS011;3747;48.628;9.058;2022-09-20T04:54:17;3.30;;;2.30;;
7410;SDS011;3747;48.628;9.058;2022-09-20T04:57:26;2.30;;;2.10;;
7410;SDS011;3747;48.628;9.058;2022-09-20T05:00:12;6.20;;;2.13;;
7410;SDS011;3747;48.628;9.058;2022-09-20T05:05:47;3.57;;;2.10;;
7410;SDS011;3747;48.628;9.058;2022-09-20T05:17:23;7.87;;;2.37;;
7410;SDS011;3747;48.628;9.058;2022-09-20T05:20:06;3.33;;;2.40;;
7410;SDS011;3747;48.628;9.058;2022-09-20T05:23:10;5.47;;;3.17;;
7410;SDS011;3747;48.628;9.058;2022-09-20T05:26:08;8.70;;;3.50;;
7410;SDS011;3747;48.628;9.058;2022-09-20T05:28:43;4.13;;;3.70;;
7410;SDS011;3747;48.628;9.058;2022-09-20T05:31:20;7.70;;;3.63;;
7410;SDS011;3747;48.628;9.058;2022-09-20T05:33:55;7.57;;;3.80;;
7410;SDS011;3747;48.628;9.058;2022-09-20T05:36:30;7.20;;;3.40;;
7410;SDS011;3747;48.628;9.058;2022-09-20T05:39:07;5.93;;;2.97;;
7410;SDS011;3747;48.628;9.058;2022-09-20T05:41:51;10.60;;;3.63;;
7410;SDS011;3747;48.628;9.058;2022-09-20T05:44:24;21.67;;;10.40;;
7410;SDS011;3747;48.628;9.058;2022-09-20T05:46:57;3.40;;;3.10;;
7410;SDS011;3747;48.628;9.058;2022-09-20T05:49:35;4.40;;;3.37;;
7410;SDS011;3747;48.628;9.058;2022-09-20T05:52:24;5.03;;;3.10;;
7410;SDS011;3747;48.628;9.058;2022-09-20T05:55:00;6.50;;;4.00;;
7410;SDS011;3747;48.628;9.058;2022-09-20T05:57:41;4.13;;;3.60;;
7410;SDS011;3747;48.628;9.058;2022-09-20T06:00:29;7.27;;;3.50;;
7410;SDS011;3747;48.628;9.058;2022-09-20T06:03:08;6.83;;;4.03;;
7410;SDS011;3747;48.628;9.058;2022-09-20T06:05:41;6.20;;;3.70;;
7410;SDS011;3747;48.628;9.058;2022-09-20T06:08:17;7.27;;;4.00;;
7410;SDS011;3747;48.628;9.058;2022-09-20T06:10:59;8.03;;;3.97;;
7410;SDS011;3747;48.628;9.058;2022-09-20T06:13:37;8.07;;;4.23;;
7410;SDS011;3747;48.628;9.058;2022-09-20T06:16:16;4.17;;;3.67;;
7410;SDS011;3747;48.628;9.058;2022-09-20T06:18:58;8.57;;;4.20;;
7410;SDS011;3747;48.628;9.058;2022-09-20T06:21:34;7.93;;;4.43;;
7410;SDS011;3747;48.628;9.058;2022-09-20T06:24:18;8.40;;;4.20;;
7410;SDS011;3747;48.628;9.058;2022-09-20T06:26:51;6.97;;;3.90;;
7410;SDS011;3747;48.628;9.058;2022-09-20T06:29:26;7.50;;;4.20;;
7410;SDS011;3747;48.628;9.058;2022-09-20T06:31:55;6.80;;;3.80;;
7410;SDS011;3747;48.628;9.058;2022-09-20T06:34:23;5.93;;;3.73;;
7410;SDS011;3747;48.628;9.058;2022-09-20T06:36:53;10.03;;;3.90;;
7410;SDS011;3747;48.628;9.058;2022-09-20T06:39:49;6.97;;;3.80;;
7410;SDS011;3747;48.628;9.058;2022-09-20T06:42:41;4.47;;;3.60;;
7410;SDS011;3747;48.628;9.058;2022-09-20T06:45:09;7.03;;;4.03;;
7410;SDS011;3747;48.628;9.058;2022-09-20T06:47:36;9.13;;;4.10;;
7410;SDS011;3747;48.628;9.058;2022-09-20T06:50:04;6.90;;;4.67;;
7410;SDS011;3747;48.628;9.058;2022-09-20T06:52:31;10.10;;;4.63;;
7410;SDS011;3747;48.628;9.058;2022-09-20T06:54:59;6.67;;;4.03;;
7410;SDS011;3747;48.628;9.058;2022-09-20T06:57:33;5.70;;;4.30;;
7410;SDS011;3747;48.628;9.058;2022-09-20T07:00:02;8.40;;;4.50;;
7410;SDS011;3747;48.628;9.058;2022-09-20T07:02:30;13.53;;;4.43;;
7410;SDS011;3747;48.628;9.058;2022-09-20T07:04:57;5.43;;;3.43;;
7410;SDS011;3747;48.628;9.058;2022-09-20T07:07:25;7.83;;;3.20;;
7410;SDS011;3747;48.628;9.058;2022-09-20T07:09:51;9.30;;;3.10;;
7410;SDS011;3747;48.628;9.058;2022-09-20T07:12:18;4.63;;;2.70;;
7410;SDS011;3747;48.628;9.058;2022-09-20T07:14:45;5.43;;;2.90;;
7410;SDS011;3747;48.628;9.058;2022-09-20T07:17:11;4.67;;;3.00;;
7410;SDS011;3747;48.628;9.058;2022-09-20T07:19:38;5.30;;;2.77;;
7410;SDS011;3747;48.628;9.058;2022-09-20T07:22:05;7.70;;;3.20;;
7410;SDS011;3747;48.628;9.058;2022-09-20T07:24:33;5.47;;;2.97;;
7410;SDS011;3747;48.628;9.058;2022-09-20T07:27:01;5.80;;;2.53;;
7410;SDS011;3747;48.628;9.058;2022-09-20T07:29:35;6.70;;;3.33;;
7410;SDS011;3747;48.628;9.058;2022-09-20T07:32:02;4.80;;;2.70;;
7410;SDS011;3747;48.628;9.058;2022-09-20T07:34:28;3.90;;;2.70;;
7410;SDS011;3747;48.628;9.058;2022-09-20T07:36:56;6.23;;;2.63;;
7410;SDS011;3747;48.628;9.058;2022-09-20T07:39:24;5.40;;;3.00;;
7410;SDS011;3747;48.628;9.058;2022-09-20T07:41:52;5.50;;;2.20;;
7410;SDS011;3747;48.628;9.058;2022-09-20T07:44:19;6.17;;;2.63;;
7410;SDS011;3747;48.628;9.058;2022-09-20T07:46:48;3.27;;;2.40;;
7410;SDS011;3747;48.628;9.058;2022-09-20T07:49:15;7.87;;;2.63;;
7410;SDS011;3747;48.628;9.058;2022-09-20T07:51:42;5.50;;;2.43;;
7410;SDS011;3747;48.628;9.058;2022-09-20T07:54:09;8.63;;;2.60;;
7410;SDS011;3747;48.628;9.058;2022-09-20T07:56:36;5.87;;;2.93;;
7410;SDS011;3747;48.628;9.058;2022-09-20T07:59:04;7.87;;;2.67;;
7410;SDS011;3747;48.628;9.058;2022-09-20T08:01:31;6.63;;;2.70;;
7410;SDS011;3747;48.628;9.058;2022-09-20T08:03:57;4.50;;;2.73;;
7410;SDS011;3747;48.628;9.058;2022-09-20T08:06:24;6.93;;;2.33;;
7410;SDS011;3747;48.628;9.058;2022-09-20T08:08:51;4.00;;;2.40;;
7410;SDS011;3747;48.628;9.058;2022-09-20T08:11:19;4.63;;;2.53;;
7410;SDS011;3747;48.628;9.058;2022-09-20T08:13:50;6.40;;;2.20;;
7410;SDS011;3747;48.628;9.058;2022-09-20T08:16:19;2.53;;;2.10;;
7410;SDS011;3747;48.628;9.058;2022-09-20T08:18:46;6.17;;;2.00;;
7410;SDS011;3747;48.628;9.058;2022-09-20T08:21:15;4.77;;;2.00;;
7410;SDS011;3747;48.628;9.058;2022-09-20T08:23:43;4.43;;;2.10;;
7410;SDS011;3747;48.628;9.058;2022-09-20T08:26:12;5.33;;;1.47;;
7410;SDS011;3747;48.628;9.058;2022-09-20T08:28:41;3.33;;;1.40;;
7410;SDS011;3747;48.628;9.058;2022-09-20T08:31:09;4.97;;;1.33;;
7410;SDS011;3747;48.628;9.058;2022-09-20T08:33:38;6.40;;;2.03;;
7410;SDS011;3747;48.628;9.058;2022-09-20T08:36:05;6.90;;;1.83;;
7410;SDS011;3747;48.628;9.058;2022-09-20T08:38:34;3.63;;;1.37;;
7410;SDS011;3747;48.628;9.058;2022-09-20T08:41:01;6.10;;;1.87;;
7410;SDS011;3747;48.628;9.058;2022-09-20T08:43:33;6.17;;;1.60;;
7410;SDS011;3747;48.628;9.058;2022-09-20T08:46:03;9.03;;;1.47;;
7410;SDS011;3747;48.628;9.058;2022-09-20T08:48:34;3.53;;;1.27;;
7410;SDS011;3747;48.628;9.058;2022-09-20T08:51:03;2.73;;;1.20;;
7410;SDS011;3747;48.628;9.058;2022-09-20T08:53:30;2.07;;;1.20;;
7410;SDS011;3747;48.628;9.058;2022-09-20T08:55:58;6.73;;;1.53;;
7410;SDS011;3747;48.628;9.058;2022-09-20T08:58:25;10.57;;;1.20;;
7410;SDS011;3747;48.628;9.058;2022-09-20T09:00:53;3.53;;;1.33;;
7410;SDS011;3747;48.628;9.058;2022-09-20T09:03:22;4.70;;;1.10;;
7410;SDS011;3747;48.628;9.058;2022-09-20T09:05:50;6.73;;;1.33;;
7410;SDS011;3747;48.628;9.058;2022-09-20T09:08:19;8.40;;;1.80;;
7410;SDS011;3747;48.628;9.058;2022-09-20T09:10:51;4.77;;;1.20;;
7410;SDS011;3747;48.628;9.058;2022-09-20T09:13:20;4.37;;;1.23;;
7410;SDS011;3747;48.628;9.058;2022-09-20T09:15:53;4.30;;;1.57;;
7410;SDS011;3747;48.628;9.058;2022-09-20T09:18:24;3.50;;;1.20;;
7410;SDS011;3747;48.628;9.058;2022-09-20T09:20:56;4.00;;;1.50;;
7410;SDS011;3747;48.628;9.058;2022-09-20T09:23:25;2.43;;;1.40;;
7410;SDS011;3747;48.628;9.058;2022-09-20T09:25:53;4.13;;;1.43;;
7410;SDS011;3747;48.628;9.058;2022-09-20T09:28:21;4.17;;;1.50;;
7410;SDS011;3747;48.628;9.058;2022-09-20T09:30:49;3.90;;;1.70;;
7410;SDS011;3747;48.628;9.058;2022-09-20T09:33:20;5.40;;;1.83;;
7410;SDS011;3747;48.628;9.058;2022-09-20T09:35:56;5.07;;;1.67;;
7410;SDS011;3747;48.628;9.058;2022-09-20T09:38:26;4.53;;;1.60;;
7410;SDS011;3747;48.628;9.058;2022-09-20T09:40:55;3.00;;;1.67;;
7410;SDS011;3747;48.628;9.058;2022-09-20T09:43:24;3.10;;;1.40;;
7410;SDS011;3747;48.628;9.058;2022-09-20T09:45:53;5.63;;;1.57;;
7410;SDS011;3747;48.628;9.058;2022-09-20T09:48:22;5.93;;;1.63;;
7410;SDS011;3747;48.628;9.058;2022-09-20T09:51:05;5.77;;;1.80;;
7410;SDS011;3747;48.628;9.058;2022-09-20T09:53:36;3.23;;;1.40;;
7410;SDS011;3747;48.628;9.058;2022-09-20T09:56:13;4.17;;;1.77;;
7410;SDS011;3747;48.628;9.058;2022-09-20T09:58:53;2.17;;;1.37;;
7410;SDS011;3747;48.628;9.058;2022-09-20T10:01:35;7.37;;;1.47;;
7410;SDS011;3747;48.628;9.058;2022-09-20T10:04:09;8.40;;;1.50;;
7410;SDS011;3747;48.628;9.058;2022-09-20T10:06:43;4.27;;;1.40;;
7410;SDS011;3747;48.628;9.058;2022-09-20T10:09:21;5.10;;;1.53;;
7410;SDS011;3747;48.628;9.058;2022-09-20T10:12:03;4.47;;;1.30;;
7410;SDS011;3747;48.628;9.058;2022-09-20T10:14:50;3.30;;;1.40;;
7410;SDS011;3747;48.628;9.058;2022-09-20T10:17:30;3.03;;;1.10;;
7410;SDS011;3747;48.628;9.058;2022-09-20T10:20:23;3.10;;;1.30;;
7410;SDS011;3747;48.628;9.058;2022-09-20T10:23:03;3.87;;;1.53;;
7410;SDS011;3747;48.628;9.058;2022-09-20T10:25:42;4.47;;;1.30;;
7410;SDS011;3747;48.628;9.058;2022-09-20T10:28:24;2.50;;;1.07;;
7410;SDS011;3747;48.628;9.058;2022-09-20T10:31:02;2.37;;;1.00;;
7410;SDS011;3747;48.628;9.058;2022-09-20T10:33:37;2.90;;;1.27;;
7410;SDS011;3747;48.628;9.058;2022-09-20T10:36:13;1.97;;;1.13;;
7410;SDS011;3747;48.628;9.058;2022-09-20T10:38:50;3.63;;;1.10;;
7410;SDS011;3747;48.628;9.058;2022-09-20T10:41:27;1.93;;;1.13;;
7410;SDS011;3747;48.628;9.058;2022-09-20T10:44:29;2.70;;;1.10;;
7410;SDS011;3747;48.628;9.058;2022-09-20T10:47:06;3.33;;;1.03;;
7410;SDS011;3747;48.628;9.058;2022-09-20T10:49:40;4.80;;;1.63;;
7410;SDS011;3747;48.628;9.058;2022-09-20T10:52:19;2.93;;;1.17;;
7410;SDS011;3747;48.628;9.058;2022-09-20T10:57:55;4.30;;;1.20;;
7410;SDS011;3747;48.628;9.058;2022-09-20T11:00:31;3.80;;;1.40;;
7410;SDS011;3747;48.628;9.058;2022-09-20T11:03:08;4.57;;;1.37;;
7410;SDS011;3747;48.628;9.058;2022-09-20T11:05:45;3.13;;;1.00;;
7410;SDS011;3747;48.628;9.058;2022-09-20T11:08:25;4.07;;;1.00;;
7410;SDS011;3747;48.628;9.058;2022-09-20T11:10:57;4.33;;;1.23;;
7410;SDS011;3747;48.628;9.058;2022-09-20T11:13:32;4.00;;;1.03;;
7410;SDS011;3747;48.628;9.058;2022-09-20T11:16:07;2.10;;;0.90;;
7410;SDS011;3747;48.628;9.058;2022-09-20T11:18:40;4.17;;;1.20;;
7410;SDS011;3747;48.628;9.058;2022-09-20T11:21:13;5.33;;;1.30;;
7410;SDS011;3747;48.628;9.058;2022-09-20T11:23:49;2.97;;;1.13;;
7410;SDS011;3747;48.628;9.058;2022-09-20T11:26:21;1.57;;;1.20;;
7410;SDS011;3747;48.628;9.058;2022-09-20T11:28:58;4.47;;;1.20;;
7410;SDS011;3747;48.628;9.058;2022-09-20T11:31:31;1.33;;;1.10;;
7410;SDS011;3747;48.628;9.058;2022-09-20T11:34:04;4.33;;;1.23;;
7410;SDS011;3747;48.628;9.058;2022-09-20T11:36:38;2.23;;;1.80;;
7410;SDS011;3747;48.628;9.058;2022-09-20T11:39:17;5.00;;;1.63;;
7410;SDS011;3747;48.628;9.058;2022-09-20T11:41:48;1.80;;;1.10;;
7410;SDS011;3747;48.628;9.058;2022-09-20T11:44:17;2.27;;;1.07;;
7410;SDS011;3747;48.628;9.058;2022-09-20T11:46:47;2.60;;;1.40;;
7410;SDS011;3747;48.628;9.058;2022-09-20T11:49:18;2.53;;;1.10;;
7410;SDS011;3747;48.628;9.058;2022-09-20T11:51:53;3.30;;;1.17;;
7410;SDS011;3747;48.628;9.058;2022-09-20T11:54:39;3.93;;;1.20;;
7410;SDS011;3747;48.628;9.058;2022-09-20T11:57:36;5.17;;;1.40;;
7410;SDS011;3747;48.628;9.058;2022-09-20T12:00:05;3.37;;;1.13;;
7410;SDS011;3747;48.628;9.058;2022-09-20T12:02:34;5.57;;;1.57;;
7410;SDS011;3747;48.628;9.058;2022-09-20T12:05:06;5.03;;;1.30;;
7410;SDS011;3747;48.628;9.058;2022-09-20T12:07:51;3.57;;;1.40;;
7410;SDS011;3747;48.628;9.058;2022-09-20T12:10:20;5.10;;;1.20;;
7410;SDS011;3747;48.628;9.058;2022-09-20T12:12:53;3.37;;;1.50;;
7410;SDS011;3747;48.628;9.058;2022-09-20T12:15:25;3.53;;;1.30;;
7410;SDS011;3747;48.628;9.058;2022-09-20T12:18:20;4.00;;;1.10;;
7410;SDS011;3747;48.628;9.058;2022-09-20T12:21:01;3.97;;;1.47;;
7410;SDS011;3747;48.628;9.058;2022-09-20T12:26:42;3.87;;;1.60;;
7410;SDS011;3747;48.628;9.058;2022-09-20T12:38:16;2.83;;;1.10;;
7410;SDS011;3747;48.628;9.058;2022-09-20T12:41:03;3.30;;;1.10;;
7410;SDS011;3747;48.628;9.058;2022-09-20T12:43:36;2.83;;;1.43;;
7410;SDS011;3747;48.628;9.058;2022-09-20T12:46:17;2.73;;;1.53;;
7410;SDS011;3747;48.628;9.058;2022-09-20T12:48:58;2.67;;;1.20;;
7410;SDS011;3747;48.628;9.058;2022-09-20T12:52:21;2.13;;;1.30;;
7410;SDS011;3747;48.628;9.058;2022-09-20T12:58:21;1.80;;;0.93;;
7410;SDS011;3747;48.628;9.058;2022-09-20T13:00:51;1.07;;;0.80;;
7410;SDS011;3747;48.628;9.058;2022-09-20T13:07:28;2.10;;;0.70;;
7410;SDS011;3747;48.628;9.058;2022-09-20T13:10:00;3.57;;;0.80;;
7410;SDS011;3747;48.628;9.058;2022-09-20T13:12:35;1.27;;;1.00;;
7410;SDS011;3747;48.628;9.058;2022-09-20T13:15:04;1.07;;;0.97;;
7410;SDS011;3747;48.628;9.058;2022-09-20T13:17:33;1.57;;;1.00;;
7410;SDS011;3747;48.628;9.058;2022-09-20T13:20:02;1.90;;;0.80;;
7410;SDS011;3747;48.628;9.058;2022-09-20T13:22:33;1.93;;;0.60;;
7410;SDS011;3747;48.628;9.058;2022-09-20T13:25:06;2.67;;;0.90;;
7410;SDS011;3747;48.628;9.058;2022-09-20T13:27:40;0.93;;;0.70;;
7410;SDS011;3747;48.628;9.058;2022-09-20T13:30:15;2.40;;;0.80;;
7410;SDS011;3747;48.628;9.058;2022-09-20T13:32:44;2.43;;;0.77;;
7410;SDS011;3747;48.628;9.058;2022-09-20T13:35:14;1.80;;;0.70;;
7410;SDS011;3747;48.628;9.058;2022-09-20T13:37:46;1.73;;;1.00;;
7410;SDS011;3747;48.628;9.058;2022-09-20T13:40:16;3.33;;;0.77;;
7410;SDS011;3747;48.628;9.058;2022-09-20T13:42:44;0.87;;;0.50;;
7410;SDS011;3747;48.628;9.058;2022-09-20T13:45:11;2.03;;;0.80;;
7410;SDS011;3747;48.628;9.058;2022-09-20T13:47:40;3.60;;;1.40;;
7410;SDS011;3747;48.628;9.058;2022-09-20T13:50:11;3.87;;;1.00;;
7410;SDS011;3747;48.628;9.058;2022-09-20T13:52:47;2.23;;;0.87;;
7410;SDS011;3747;48.628;9.058;2022-09-20T13:55:24;2.47;;;1.10;;
7410;SDS011;3747;48.628;9.058;2022-09-20T13:57:54;1.00;;;0.90;;
7410;SDS011;3747;48.628;9.058;2022-09-20T14:00:23;2.87;;;1.10;;
7410;SDS011;3747;48.628;9.058;2022-09-20T14:02:50;1.83;;;0.97;;
7410;SDS011;3747;48.628;9.058;2022-09-20T14:05:20;1.03;;;0.73;;
7410;SDS011;3747;48.628;9.058;2022-09-20T14:07:50;2.40;;;0.90;;
7410;SDS011;3747;48.628;9.058;2022-09-20T14:10:31;3.57;;;1.10;;
7410;SDS011;3747;48.628;9.058;2022-09-20T14:12:59;2.43;;;1.10;;
7410;SDS011;3747;48.628;9.058;2022-09-20T14:15:30;5.23;;;1.20;;
7410;SDS011;3747;48.628;9.058;2022-09-20T14:18:00;2.80;;;1.10;;
7410;SDS011;3747;48.628;9.058;2022-09-20T14:20:30;2.53;;;1.50;;
7410;SDS011;3747;48.628;9.058;2022-09-20T14:22:58;1.87;;;1.00;;
7410;SDS011;3747;48.628;9.058;2022-09-20T14:25:25;2.57;;;1.27;;
7410;SDS011;3747;48.628;9.058;2022-09-20T14:28:06;1.37;;;1.13;;
7410;SDS011;3747;48.628;9.058;2022-09-20T14:30:43;2.63;;;1.20;;
7410;SDS011;3747;48.628;9.058;2022-09-20T14:33:14;4.10;;;1.20;;
7410;SDS011;3747;48.628;9.058;2022-09-20T14:35:46;4.20;;;1.10;;
7410;SDS011;3747;48.628;9.058;2022-09-20T14:38:14;1.40;;;0.90;;
7410;SDS011;3747;48.628;9.058;2022-09-20T14:40:43;2.57;;;1.03;;
7410;SDS011;3747;48.628;9.058;2022-09-20T14:43:20;3.50;;;1.00;;
7410;SDS011;3747;48.628;9.058;2022-09-20T14:45:51;2.40;;;1.10;;
7410;SDS011;3747;48.628;9.058;2022-09-20T14:48:31;2.70;;;1.00;;
7410;SDS011;3747;48.628;9.058;2022-09-20T14:51:17;3.23;;;0.97;;
7410;SDS011;3747;48.628;9.058;2022-09-20T14:53:47;2.63;;;0.87;;
7410;SDS011;3747;48.628;9.058;2022-09-20T14:56:16;2.77;;;0.90;;
7410;SDS011;3747;48.628;9.058;2022-09-20T14:59:18;2.90;;;1.00;;
7410;SDS011;3747;48.628;9.058;2022-09-20T15:01:53;3.37;;;1.13;;
7410;SDS011;3747;48.628;9.058;2022-09-20T15:04:24;2.83;;;0.80;;
7410;SDS011;3747;48.628;9.058;2022-09-20T15:06:54;2.50;;;0.80;;
7410;SDS011;3747;48.628;9.058;2022-09-20T15:09:21;3.73;;;0.90;;
7410;SDS011;3747;48.628;9.058;2022-09-20T15:11:57;2.47;;;0.70;;
7410;SDS011;3747;48.628;9.058;2022-09-20T15:14:25;3.07;;;0.80;;
7410;SDS011;3747;48.628;9.058;2022-09-20T15:16:52;3.10;;;1.00;;
7410;SDS011;3747;48.628;9.058;2022-09-20T15:19:19;4.50;;;0.93;;
7410;SDS011;3747;48.628;9.058;2022-09-20T15:21:45;4.10;;;1.23;;
7410;SDS011;3747;48.628;9.058;2022-09-20T15:24:14;1.67;;;0.77;;
7410;SDS011;3747;48.628;9.058;2022-09-20T15:26:42;1.90;;;0.90;;
7410;SDS011;3747;48.628;9.058;2022-09-20T15:29:11;3.07;;;0.90;;
7410;SDS011;3747;48.628;9.058;2022-09-20T15:31:40;2.67;;;0.90;;
7410;SDS011;3747;48.628;9.058;2022-09-20T15:34:07;2.30;;;1.20;;
7410;SDS011;3747;48.628;9.058;2022-09-20T15:36:34;2.20;;;0.90;;
7410;SDS011;3747;48.628;9.058;2022-09-20T15:39:01;2.13;;;0.77;;
7410;SDS011;3747;48.628;9.058;2022-09-20T15:41:30;1.70;;;0.90;;
7410;SDS011;3747;48.628;9.058;2022-09-20T15:43:57;1.30;;;1.00;;
7410;SDS011;3747;48.628;9.058;2022-09-20T15:46:25;2.03;;;0.90;;
7410;SDS011;3747;48.628;9.058;2022-09-20T15:48:52;2.57;;;1.10;;
7410;SDS011;3747;48.628;9.058;2022-09-20T15:51:19;4.20;;;1.00;;
7410;SDS011;3747;48.628;9.058;2022-09-20T15:53:46;1.47;;;1.00;;
7410;SDS011;3747;48.628;9.058;2022-09-20T15:56:21;3.03;;;1.30;;
7410;SDS011;3747;48.628;9.058;2022-09-20T15:58:50;2.83;;;1.00;;
7410;SDS011;3747;48.628;9.058;2022-09-20T16:01:23;1.03;;;0.90;;
7410;SDS011;3747;48.628;9.058;2022-09-20T16:03:52;3.83;;;1.50;;
7410;SDS011;3747;48.628;9.058;2022-09-20T16:06:19;5.13;;;2.63;;
7410;SDS011;3747;48.628;9.058;2022-09-20T16:08:46;2.70;;;1.57;;
7410;SDS011;3747;48.628;9.058;2022-09-20T16:11:14;1.53;;;1.40;;
7410;SDS011;3747;48.628;9.058;2022-09-20T16:13:43;2.57;;;1.00;;
7410;SDS011;3747;48.628;9.058;2022-09-20T16:16:12;1.77;;;1.17;;
7410;SDS011;3747;48.628;9.058;2022-09-20T16:18:39;1.50;;;1.10;;
7410;SDS011;3747;48.628;9.058;2022-09-20T16:21:24;1.77;;;1.03;;
7410;SDS011;3747;48.628;9.058;2022-09-20T16:23:51;1.10;;;0.50;;
7410;SDS011;3747;48.628;9.058;2022-09-20T16:26:20;1.90;;;1.07;;
7410;SDS011;3747;48.628;9.058;2022-09-20T16:28:48;1.67;;;0.90;;
7410;SDS011;3747;48.628;9.058;2022-09-20T16:31:29;2.60;;;1.07;;
7410;SDS011;3747;48.628;9.058;2022-09-20T16:33:58;1.53;;;1.00;;
7410;SDS011;3747;48.628;9.058;2022-09-20T16:36:26;1.00;;;0.90;;
7410;SDS011;3747;48.628;9.058;2022-09-20T16:38:53;2.77;;;1.00;;
7410;SDS011;3747;48.628;9.058;2022-09-20T16:41:22;2.93;;;1.27;;
7410;SDS011;3747;48.628;9.058;2022-09-20T16:43:49;2.67;;;0.87;;
7410;SDS011;3747;48.628;9.058;2022-09-20T16:46:17;3.17;;;1.10;;